Time;durP1;ratioP1;P1;durP2;ratioP2;P2;SDS_P1;SDS_P2;PMS_P1;PMS_P2;Temp;Humidity;BMP_temperature;BMP_pressure;BME280_temperature;BME280_humidity;BME280_pressure;Samples;Min_cycle;Max_cycle;Signal;HPM_P1;HPM_P2
2021/12/08 00:00:55;;;;;;;8.32;3.58;;;3.30;99.90;;;;;;5008099;28;20038;-80
2021/12/08 00:03:23;;;;;;;6.72;3.17;;;3.40;99.90;;;;;;5003055;28;20039;-80
2021/12/08 00:05:49;;;;;;;8.48;3.05;;;3.30;99.90;;;;;;4990294;28;20420;-80
2021/12/08 00:08:20;;;;;;;6.05;2.95;;;3.40;99.90;;;;;;5002750;28;20042;-80
2021/12/08 00:13:01;;;;;;;4.95;2.90;;;3.40;99.90;;;;;;5004342;28;20129;-80
2021/12/08 00:13:37;;;;;;;9.18;3.50;;;4.20;99.90;;;;;;4988764;28;20441;-80
2021/12/08 00:16:09;;;;;;;7.53;3.17;;;3.40;99.90;;;;;;4986362;28;20084;-80
2021/12/08 00:18:37;;;;;;;7.25;3.28;;;3.30;99.90;;;;;;5000215;28;20051;-80
2021/12/08 00:21:08;;;;;;;6.45;3.20;;;3.40;99.90;;;;;;5006904;28;20054;-80
2021/12/08 00:23:34;;;;;;;6.03;2.80;;;3.40;99.90;;;;;;4985704;28;20042;-80
2021/12/08 00:26:03;;;;;;;;;;;3.40;99.90;;;;;;5003623;28;20536;-80
2021/12/08 00:28:29;;;;;;;7.75;3.40;;;3.50;99.90;;;;;;4989178;28;20291;-80
2021/12/08 00:30:58;;;;;;;6.75;3.20;;;3.50;99.90;;;;;;4981628;28;20100;-80
2021/12/08 00:33:24;;;;;;;6.57;2.90;;;3.40;99.90;;;;;;4984883;28;20064;-80
2021/12/08 00:35:52;;;;;;;5.90;3.30;;;3.50;99.90;;;;;;4989330;28;20046;-81
2021/12/08 00:38:22;;;;;;;7.47;4.25;;;3.50;99.90;;;;;;5002771;28;20042;-80
2021/12/08 00:40:49;;;;;;;5.10;2.97;;;3.40;99.90;;;;;;5002956;28;20042;-81
2021/12/08 00:43:27;;;;;;;5.57;3.15;;;3.30;99.90;;;;;;4987741;28;20093;-80
2021/12/08 00:45:53;;;;;;;6.53;3.28;;;3.40;99.90;;;;;;4981100;28;20042;-80
2021/12/08 00:48:22;;;;;;;;;;;3.50;99.90;;;;;;4988386;28;20168;-80
2021/12/08 00:50:49;;;;;;;6.90;3.60;;;3.40;99.90;;;;;;4986023;28;19922;-80
2021/12/08 00:53:16;;;;;;;7.47;3.75;;;3.60;99.90;;;;;;4985071;28;20026;-80
2021/12/08 00:55:42;;;;;;;7.97;3.72;;;3.40;99.90;;;;;;4985087;28;20588;-81
2021/12/08 00:58:07;;;;;;;;;;;3.40;99.90;;;;;;4987022;28;20038;-80
2021/12/08 01:00:39;;;;;;;9.32;3.70;;;3.50;99.90;;;;;;4986867;28;19917;-80
2021/12/08 01:03:06;;;;;;;9.30;3.72;;;3.40;99.90;;;;;;4986796;28;20041;-79
2021/12/08 01:05:39;;;;;;;7.10;3.55;;;3.50;99.90;;;;;;5001617;28;20061;-79
2021/12/08 01:08:05;;;;;;;7.47;3.42;;;3.50;99.90;;;;;;4985371;28;20441;-79
2021/12/08 01:10:35;;;;;;;9.52;3.47;;;3.60;99.90;;;;;;4985292;28;20624;-79
2021/12/08 01:13:02;;;;;;;5.95;2.72;;;3.60;99.90;;;;;;5003437;28;20096;-79
2021/12/08 01:15:28;;;;;;;8.20;3.83;;;3.60;99.90;;;;;;4987347;28;20041;-80
2021/12/08 01:17:55;;;;;;;7.47;3.53;;;3.50;99.90;;;;;;4984795;28;20034;-80
2021/12/08 01:20:21;;;;;;;10.20;4.20;;;3.50;99.90;;;;;;4984490;28;20080;-80
2021/12/08 01:22:46;;;;;;;;;;;3.50;99.90;;;;;;4998241;28;20061;-80
2021/12/08 01:25:12;;;;;;;6.03;3.33;;;3.60;99.90;;;;;;5001985;28;19917;-79
2021/12/08 01:27:39;;;;;;;9.23;4.28;;;3.70;99.90;;;;;;5004714;28;20053;-79
2021/12/08 01:30:06;;;;;;;8.25;3.40;;;3.80;99.90;;;;;;5005601;28;20169;-79
2021/12/08 01:32:35;;;;;;;7.43;4.32;;;3.80;99.90;;;;;;4986064;28;20034;-80
2021/12/08 01:35:11;;;;;;;7.07;4.63;;;3.70;99.90;;;;;;4983804;28;20764;-79
2021/12/08 01:37:36;;;;;;;7.13;3.95;;;3.70;99.90;;;;;;5004278;28;20086;-79
2021/12/08 01:40:06;;;;;;;;;;;3.60;99.90;;;;;;4986416;28;20482;-79
2021/12/08 01:42:41;;;;;;;10.15;4.20;;;3.60;99.90;;;;;;4985211;28;19969;-79
2021/12/08 01:47:51;;;;;;;9.52;4.78;;;3.70;99.90;;;;;;4980740;28;20054;-79
2021/12/08 01:50:16;;;;;;;;;;;3.80;99.90;;;;;;5001583;28;20408;-79
2021/12/08 01:52:42;;;;;;;11.77;4.63;;;3.80;99.90;;;;;;5001981;28;19926;-80
2021/12/08 01:55:10;;;;;;;;;;;3.70;99.90;;;;;;4984627;28;20512;-80
2021/12/08 01:57:39;;;;;;;8.40;4.57;;;3.70;99.90;;;;;;5003834;28;19935;-79
2021/12/08 02:00:15;;;;;;;8.65;5.05;;;3.70;99.90;;;;;;4987527;28;20106;-80
2021/12/08 02:02:42;;;;;;;8.82;4.68;;;3.80;99.90;;;;;;4993135;28;20045;-80
2021/12/08 02:05:08;;;;;;;8.55;4.65;;;3.80;99.90;;;;;;4986621;28;20379;-79
2021/12/08 02:07:34;;;;;;;;;;;3.80;99.90;;;;;;4983696;28;20048;-79
2021/12/08 02:10:00;;;;;;;7.38;4.00;;;3.90;99.90;;;;;;5004522;28;20016;-80
2021/12/08 02:12:26;;;;;;;;;;;3.90;99.90;;;;;;4985433;28;20129;-80
2021/12/08 02:14:51;;;;;;;11.27;4.68;;;4.00;99.90;;;;;;4983585;28;19921;-80
2021/12/08 02:17:17;;;;;;;;;;;4.00;99.90;;;;;;4997122;28;20030;-79
2021/12/08 02:19:43;;;;;;;9.45;4.78;;;4.10;99.90;;;;;;4987511;28;19925;-80
2021/12/08 02:22:08;;;;;;;;;;;4.00;99.90;;;;;;5005734;28;20048;-80
2021/12/08 02:24:34;;;;;;;6.78;4.18;;;4.10;99.90;;;;;;4979530;28;19922;-80
2021/12/08 02:26:59;;;;;;;;;;;4.00;99.90;;;;;;5004425;28;20704;-80
2021/12/08 02:29:36;;;;;;;9.32;4.95;;;4.00;99.90;;;;;;4982629;28;19961;-80
2021/12/08 02:32:32;;;;;;;9.75;5.40;;;4.00;99.90;;;;;;4997705;28;20103;-80
2021/12/08 02:48:39;;;;;;;8.05;5.28;;;4.20;99.90;;;;;;4983474;28;20057;-80
2021/12/08 02:51:05;;;;;;;9.48;5.45;;;4.10;99.90;;;;;;5000852;28;20046;-80
2021/12/08 02:53:31;;;;;;;;;;;4.20;99.90;;;;;;4986343;28;20100;-81
2021/12/08 02:55:56;;;;;;;7.32;4.93;;;4.20;99.90;;;;;;4986898;28;19929;-81
2021/12/08 02:58:22;;;;;;;;;;;4.20;99.90;;;;;;5000699;28;20483;-80
2021/12/08 03:00:56;;;;;;;8.80;5.18;;;4.20;99.90;;;;;;4986501;28;20383;-80
2021/12/08 03:03:22;;;;;;;8.93;5.50;;;4.20;99.90;;;;;;4981837;28;20121;-81
2021/12/08 03:05:48;;;;;;;;;;;4.30;99.90;;;;;;4979257;28;20466;-80
2021/12/08 03:08:16;;;;;;;10.00;5.50;;;4.40;99.90;;;;;;4999536;28;19921;-81
2021/12/08 03:10:47;;;;;;;9.02;5.90;;;4.40;99.90;;;;;;4986776;28;20396;-81
2021/12/08 03:15:48;;;;;;;8.82;4.35;;;4.40;99.90;;;;;;5154702;23;20061;-81
2021/12/08 03:18:14;;;;;;;;;;;4.50;99.90;;;;;;4986348;28;20042;-80
2021/12/08 03:23:23;;;;;;;11.02;5.85;;;4.50;99.90;;;;;;4987134;28;20046;-80
2021/12/08 03:25:55;;;;;;;10.45;5.90;;;4.60;99.90;;;;;;4967320;28;20058;-80
2021/12/08 03:28:25;;;;;;;6.97;4.90;;;4.60;99.90;;;;;;4970684;28;20387;-80
2021/12/08 03:41:52;;;;;;;10.15;6.10;;;4.80;99.90;;;;;;5980352;23;20057;-80
2021/12/08 03:44:43;;;;;;;9.13;5.22;;;3.70;99.90;;;;;;4988322;28;20524;-80
2021/12/08 03:47:15;;;;;;;10.35;5.88;;;4.00;99.90;;;;;;4988272;28;20052;-80
2021/12/08 03:49:43;;;;;;;10.52;6.22;;;4.80;99.90;;;;;;4986634;28;20105;-80
2021/12/08 03:52:12;;;;;;;10.50;6.25;;;4.80;99.90;;;;;;4985884;28;20101;-80
2021/12/08 03:54:38;;;;;;;9.05;5.90;;;4.80;99.90;;;;;;4987674;28;20054;-80
2021/12/08 03:57:04;;;;;;;;;;;4.90;99.90;;;;;;5002471;28;20138;-80
2021/12/08 03:59:30;;;;;;;9.30;5.47;;;4.90;99.90;;;;;;4988465;28;20274;-80
2021/12/08 04:01:56;;;;;;;;;;;5.00;99.90;;;;;;4986926;28;20041;-80
2021/12/08 04:04:26;;;;;;;9.15;5.82;;;5.00;99.90;;;;;;5006334;28;20392;-80
2021/12/08 04:06:53;;;;;;;10.05;6.03;;;4.90;99.90;;;;;;5003274;28;20042;-80
2021/12/08 04:15:25;;;;;;;8.45;6.20;;;4.90;99.90;;;;;;5808387;22;20062;-80
2021/12/08 04:31:33;;;;;;;9.48;6.45;;;6.20;99.90;;;;;;4980128;28;20166;-80
2021/12/08 04:41:49;;;;;;;12.73;7.18;;;3.20;99.90;;;;;;4977770;28;20526;-80
2021/12/08 04:45:07;;;;;;;12.10;6.75;;;5.50;99.90;;;;;;4958501;28;20057;-80
2021/12/08 04:51:57;;;;;;;11.95;6.10;;;3.80;99.90;;;;;;4980664;28;20042;-79
2021/12/08 05:07:54;;;;;;;12.52;7.18;;;5.20;99.90;;;;;;4939125;28;20047;-80
2021/12/08 05:09:59;;;;;;;10.65;6.90;;;5.20;99.90;;;;;;4951040;28;20059;-80
2021/12/08 05:12:30;;;;;;;10.55;6.20;;;5.20;99.90;;;;;;4967101;28;20034;-79
2021/12/08 05:15:06;;;;;;;12.70;7.70;;;5.30;99.90;;;;;;4967257;28;20039;-79
2021/12/08 05:17:54;;;;;;;10.07;6.70;;;5.20;99.90;;;;;;4964431;28;21657;-79
2021/12/08 05:20:52;;;;;;;11.68;6.57;;;5.30;99.90;;;;;;4963097;28;20434;-81
2021/12/08 05:23:29;;;;;;;8.00;5.40;;;5.30;99.90;;;;;;4965106;28;20046;-80
2021/12/08 05:26:02;;;;;;;11.70;6.88;;;5.30;99.90;;;;;;4969624;28;20039;-81
2021/12/08 05:28:29;;;;;;;12.18;6.20;;;5.20;99.90;;;;;;4981853;28;20557;-81
2021/12/08 05:31:05;;;;;;;10.52;6.25;;;5.20;99.90;;;;;;4969380;28;20046;-80
2021/12/08 05:33:31;;;;;;;11.30;4.97;;;5.30;99.90;;;;;;4979369;28;20050;-80
2021/12/08 05:36:04;;;;;;;11.23;5.20;;;5.30;99.90;;;;;;4968785;28;20090;-80
2021/12/08 05:38:34;;;;;;;12.80;6.18;;;5.30;99.90;;;;;;4964030;28;20406;-79
2021/12/08 05:41:36;;;;;;;10.60;6.20;;;5.40;99.90;;;;;;4960534;28;20134;-80
2021/12/08 05:44:09;;;;;;;10.68;5.68;;;5.40;99.90;;;;;;4963559;28;20521;-81
2021/12/08 05:46:44;;;;;;;11.15;5.20;;;5.20;99.90;;;;;;4954883;28;20042;-81
2021/12/08 05:49:15;;;;;;;9.40;4.55;;;5.10;99.90;;;;;;4964594;28;20077;-81
2021/12/08 05:51:46;;;;;;;8.63;5.03;;;5.20;99.90;;;;;;4984792;28;20450;-79
2021/12/08 05:54:29;;;;;;;9.85;4.78;;;5.10;99.90;;;;;;4963888;28;20741;-81
2021/12/08 05:57:04;;;;;;;9.55;4.43;;;5.10;99.90;;;;;;4983270;28;20748;-79
2021/12/08 05:59:30;;;;;;;11.05;5.03;;;5.10;99.90;;;;;;5098011;23;20128;-81
2021/12/08 06:02:11;;;;;;;9.55;4.25;;;5.10;99.90;;;;;;4968280;28;20042;-82
2021/12/08 06:10:51;;;;;;;10.73;4.45;;;4.40;99.90;;;;;;5050608;23;20113;-79
2021/12/08 06:13:17;;;;;;;8.80;4.50;;;5.30;99.90;;;;;;4964498;28;20043;-79
2021/12/08 06:15:45;;;;;;;9.57;4.68;;;5.40;99.90;;;;;;4964820;28;20442;-79
2021/12/08 06:18:20;;;;;;;9.02;4.65;;;5.40;99.90;;;;;;4964737;28;20050;-79
2021/12/08 06:20:45;;;;;;;11.02;4.68;;;5.50;99.90;;;;;;4965159;28;20063;-78
2021/12/08 06:23:11;;;;;;;;;;;5.40;99.90;;;;;;4966710;28;20038;-76
2021/12/08 06:25:38;;;;;;;10.65;4.30;;;5.40;99.90;;;;;;4966448;28;19928;-77
2021/12/08 06:28:05;;;;;;;10.10;4.30;;;5.30;99.90;;;;;;4981361;28;20398;-79
2021/12/08 06:30:34;;;;;;;10.63;4.15;;;5.20;99.90;;;;;;4965376;28;20054;-77
2021/12/08 06:33:00;;;;;;;10.52;4.40;;;5.20;99.90;;;;;;4963615;28;20051;-77
2021/12/08 06:35:29;;;;;;;;;;;5.30;99.90;;;;;;4963668;28;20041;-78
2021/12/08 06:37:55;;;;;;;11.98;4.32;;;5.20;99.90;;;;;;4960638;28;19922;-77
2021/12/08 06:40:34;;;;;;;11.75;4.05;;;6.00;99.90;;;;;;4984420;28;20034;-79
2021/12/08 06:43:04;;;;;;;10.45;4.40;;;5.30;99.90;;;;;;4957894;28;20054;-77
2021/12/08 06:45:35;;;;;;;9.02;4.10;;;5.30;99.90;;;;;;4960448;28;20062;-81
2021/12/08 06:48:04;;;;;;;10.45;4.30;;;5.20;99.90;;;;;;4966786;28;20042;-81
2021/12/08 06:50:36;;;;;;;10.02;3.85;;;5.30;99.90;;;;;;4966399;28;20051;-76
2021/12/08 06:53:05;;;;;;;9.90;4.65;;;5.30;99.90;;;;;;4988080;28;20050;-78
2021/12/08 06:55:39;;;;;;;10.82;4.55;;;5.50;99.90;;;;;;4983915;28;20512;-81
2021/12/08 06:58:10;;;;;;;9.15;4.50;;;5.50;99.90;;;;;;4969051;28;20042;-79
2021/12/08 07:01:35;;;;;;;9.65;4.43;;;5.50;99.90;;;;;;4968653;28;20042;-79
2021/12/08 07:07:00;;;;;;;9.23;4.30;;;5.50;99.90;;;;;;4971386;28;20061;-81
2021/12/08 07:09:39;;;;;;;9.68;3.95;;;5.60;99.90;;;;;;4969058;28;20062;-78
2021/12/08 07:12:18;;;;;;;10.48;4.45;;;5.70;99.90;;;;;;4967069;28;20107;-79
2021/12/08 07:14:49;;;;;;;10.13;3.60;;;5.70;99.90;;;;;;4968555;28;20058;-75
2021/12/08 07:17:20;;;;;;;7.15;3.30;;;5.80;99.90;;;;;;4984384;28;20394;-78
2021/12/08 07:19:52;;;;;;;9.20;3.60;;;5.90;99.90;;;;;;4974238;28;20117;-79
2021/12/08 07:22:35;;;;;;;8.57;3.70;;;5.80;99.90;;;;;;4983341;28;20066;-78
2021/12/08 07:25:06;;;;;;;8.63;3.78;;;5.70;99.90;;;;;;4967458;28;20043;-79
2021/12/08 07:27:35;;;;;;;12.93;3.95;;;5.80;99.90;;;;;;4970325;28;20050;-79
2021/12/08 07:30:15;;;;;;;6.72;3.55;;;5.70;99.90;;;;;;4964391;28;20057;-79
2021/12/08 07:32:41;;;;;;;6.38;3.40;;;5.80;99.90;;;;;;4967508;28;20043;-79
2021/12/08 07:35:21;;;;;;;8.68;3.65;;;5.70;99.90;;;;;;4965737;28;20103;-79
2021/12/08 07:37:47;;;;;;;6.15;3.50;;;5.80;99.90;;;;;;4981507;28;20049;-83
2021/12/08 07:40:16;;;;;;;;;;;5.70;99.90;;;;;;4967585;28;20125;-78
2021/12/08 07:42:55;;;;;;;9.95;3.67;;;5.80;99.90;;;;;;4984541;28;20001;-79
2021/12/08 07:45:25;;;;;;;7.65;3.20;;;5.80;99.90;;;;;;4961240;28;20061;-79
2021/12/08 07:47:53;;;;;;;6.45;3.83;;;5.80;99.90;;;;;;4984795;28;20046;-80
2021/12/08 07:50:28;;;;;;;6.03;3.50;;;5.80;99.90;;;;;;4969512;28;20097;-77
2021/12/08 07:52:54;;;;;;;7.28;3.45;;;5.70;99.90;;;;;;4985243;28;20071;-81
2021/12/08 07:55:28;;;;;;;7.15;3.72;;;5.80;99.90;;;;;;4962731;28;20066;-77
2021/12/08 07:57:56;;;;;;;6.63;3.90;;;5.80;99.90;;;;;;4976615;23;20048;-75
2021/12/08 08:00:28;;;;;;;8.77;3.80;;;5.70;99.90;;;;;;4984236;28;20088;-76
2021/12/08 08:02:54;;;;;;;5.95;3.38;;;5.60;99.90;;;;;;4987153;28;20082;-75
2021/12/08 08:05:22;;;;;;;6.35;3.85;;;5.80;99.90;;;;;;4988691;28;20482;-77
2021/12/08 08:07:49;;;;;;;8.43;3.60;;;5.90;99.90;;;;;;4982692;28;20043;-76
2021/12/08 08:10:15;;;;;;;11.98;3.75;;;5.80;99.90;;;;;;4988675;28;20038;-75
2021/12/08 08:12:46;;;;;;;9.55;3.70;;;5.70;99.90;;;;;;4986650;28;20047;-76
2021/12/08 08:15:20;;;;;;;10.23;3.58;;;5.70;99.90;;;;;;5003574;28;20125;-76
2021/12/08 08:17:47;;;;;;;7.65;2.75;;;5.70;99.90;;;;;;4983919;28;20060;-77
2021/12/08 08:20:21;;;;;;;4.38;2.72;;;5.80;99.90;;;;;;4989482;28;20057;-76
2021/12/08 08:22:47;;;;;;;7.82;2.90;;;5.90;99.90;;;;;;5007224;28;20045;-74
2021/12/08 08:25:14;;;;;;;;;;;5.70;99.90;;;;;;4986446;28;20038;-75
2021/12/08 08:27:40;;;;;;;8.18;3.03;;;5.70;99.90;;;;;;4989223;28;20364;-77
2021/12/08 08:30:14;;;;;;;5.38;2.50;;;5.70;99.90;;;;;;4983052;28;20045;-75
2021/12/08 08:32:41;;;;;;;6.68;2.42;;;5.80;99.90;;;;;;4984859;28;20397;-75
2021/12/08 08:35:24;;;;;;;5.40;2.97;;;5.20;99.90;;;;;;5003270;28;20034;-76
2021/12/08 08:37:51;;;;;;;8.13;2.60;;;5.80;99.90;;;;;;4982962;28;20049;-74
2021/12/08 08:40:26;;;;;;;12.82;3.10;;;5.80;99.90;;;;;;4984294;28;20054;-74
2021/12/08 08:42:53;;;;;;;6.88;2.90;;;5.80;99.90;;;;;;4987008;28;20824;-74
2021/12/08 08:46:24;;;;;;;8.90;3.03;;;5.70;99.90;;;;;;5178927;23;20073;-77
2021/12/08 08:49:19;;;;;;;8.02;2.75;;;4.80;99.90;;;;;;4962194;28;20056;-78
2021/12/08 08:52:24;;;;;;;8.70;3.17;;;5.70;99.90;;;;;;4963481;28;20430;-77
2021/12/08 08:55:29;;;;;;;6.70;2.22;;;5.40;99.90;;;;;;4926757;28;20059;-74
2021/12/08 08:57:54;;;;;;;6.30;2.22;;;5.50;99.90;;;;;;4960085;28;20042;-74
2021/12/08 09:00:32;;;;;;;;;;;5.50;99.90;;;;;;4965608;28;20430;-76
2021/12/08 09:03:03;;;;;;;;;;;5.60;99.90;;;;;;4968787;28;19928;-76
2021/12/08 09:05:43;;;;;;;7.18;2.10;;;5.60;99.90;;;;;;4964439;28;19926;-75
2021/12/08 09:08:10;;;;;;;5.55;2.42;;;6.00;99.90;;;;;;4969102;28;20053;-76
2021/12/08 09:10:48;;;;;;;7.75;2.22;;;6.10;99.90;;;;;;4964952;28;20105;-76
2021/12/08 09:13:38;;;;;;;7.60;2.30;;;6.10;99.90;;;;;;4980170;28;20631;-78
2021/12/08 09:16:08;;;;;;;3.70;1.90;;;6.20;99.90;;;;;;4980750;28;20042;-74
2021/12/08 09:18:49;;;;;;;4.78;2.13;;;6.20;99.90;;;;;;4964463;28;20229;-75
2021/12/08 09:21:19;;;;;;;9.32;2.95;;;6.00;99.90;;;;;;4961667;28;20082;-76
2021/12/08 09:24:05;;;;;;;9.38;2.40;;;6.00;99.90;;;;;;4962997;28;20042;-76
2021/12/08 09:26:34;;;;;;;6.60;2.17;;;6.00;99.90;;;;;;4956636;28;20395;-76
2021/12/08 09:29:12;;;;;;;3.78;1.83;;;5.90;99.90;;;;;;4965388;28;20383;-76
2021/12/08 09:31:56;;;;;;;6.47;2.75;;;5.90;99.90;;;;;;4964741;28;20086;-76
2021/12/08 09:34:29;;;;;;;6.50;1.83;;;5.90;99.90;;;;;;4967389;28;20043;-77
2021/12/08 09:37:04;;;;;;;8.88;3.47;;;6.00;99.90;;;;;;4963997;28;20368;-77
2021/12/08 09:39:40;;;;;;;6.63;2.33;;;6.00;99.90;;;;;;4968020;28;20038;-77
2021/12/08 09:42:11;;;;;;;7.45;2.53;;;6.00;99.90;;;;;;4965921;28;20070;-77
2021/12/08 09:44:41;;;;;;;6.05;2.50;;;6.00;99.90;;;;;;4967005;28;20038;-77
2021/12/08 09:47:08;;;;;;;9.43;2.60;;;6.10;99.90;;;;;;4981459;28;20093;-75
2021/12/08 09:49:35;;;;;;;7.68;2.17;;;6.30;99.90;;;;;;4986789;28;20050;-75
2021/12/08 09:52:05;;;;;;;8.23;2.25;;;6.20;99.90;;;;;;4966591;28;20110;-76
2021/12/08 09:54:32;;;;;;;5.95;2.00;;;6.10;99.90;;;;;;4965406;28;20376;-74
2021/12/08 09:57:06;;;;;;;5.65;2.50;;;6.20;99.90;;;;;;4983040;28;20050;-75
2021/12/08 09:59:33;;;;;;;12.43;2.40;;;6.20;99.90;;;;;;4969818;28;20050;-76
2021/12/08 10:02:03;;;;;;;6.93;2.95;;;6.30;99.90;;;;;;4956366;28;20085;-76
2021/12/08 10:04:28;;;;;;;7.63;2.40;;;6.30;99.90;;;;;;4982007;28;20620;-76
2021/12/08 10:06:56;;;;;;;;;;;6.20;99.90;;;;;;4966859;28;20136;-75
2021/12/08 10:09:22;;;;;;;5.28;2.13;;;6.20;99.90;;;;;;4964249;28;19932;-76
2021/12/08 10:11:48;;;;;;;;;;;6.10;99.90;;;;;;4961233;28;20046;-76
2021/12/08 10:14:14;;;;;;;11.40;2.80;;;6.30;99.90;;;;;;4967103;28;19929;-77
2021/12/08 10:16:40;;;;;;;;;;;6.50;99.90;;;;;;4966469;28;20078;-77
2021/12/08 10:19:06;;;;;;;6.45;1.98;;;6.70;99.90;;;;;;4965957;28;19922;-77
2021/12/08 10:21:36;;;;;;;;;;;7.10;99.90;;;;;;4963860;28;20081;-76
2021/12/08 10:24:17;;;;;;;13.57;2.90;;;7.70;99.90;;;;;;4965820;28;19969;-77
2021/12/08 10:26:44;;;;;;;7.93;2.40;;;8.00;99.90;;;;;;4966544;28;20137;-77
2021/12/08 10:29:10;;;;;;;4.78;2.20;;;7.80;99.90;;;;;;4982739;28;20043;-77
2021/12/08 10:31:47;;;;;;;;;;;7.50;99.90;;;;;;4964648;28;20053;-77
2021/12/08 10:36:55;;;;;;;5.30;2.47;;;7.00;99.90;;;;;;4983538;28;20595;-77
2021/12/08 10:39:27;;;;;;;5.38;2.22;;;7.40;99.90;;;;;;4977726;28;20062;-77
2021/12/08 10:41:55;;;;;;;5.38;1.90;;;7.90;99.90;;;;;;4981891;28;20050;-77
2021/12/08 10:44:40;;;;;;;5.45;2.30;;;7.90;99.90;;;;;;4966545;28;20046;-77
2021/12/08 10:47:07;;;;;;;5.32;2.10;;;8.00;99.90;;;;;;4980383;28;20054;-76
2021/12/08 10:54:51;;;;;;;6.45;2.40;;;7.50;99.90;;;;;;4965922;28;20523;-77
2021/12/08 10:57:34;;;;;;;;;;;7.60;99.90;;;;;;4964919;28;20109;-77
2021/12/08 11:00:04;;;;;;;7.95;2.65;;;7.60;99.90;;;;;;4965607;28;19922;-77
2021/12/08 11:02:52;;;;;;;7.63;2.78;;;7.50;99.90;;;;;;4965512;28;20038;-77
2021/12/08 11:05:24;;;;;;;5.53;2.17;;;7.60;99.90;;;;;;4961604;28;20039;-77
2021/12/08 11:08:06;;;;;;;6.00;2.35;;;8.00;99.90;;;;;;4968222;28;20454;-78
2021/12/08 11:10:36;;;;;;;7.95;2.28;;;8.80;99.90;;;;;;4966683;28;20046;-77
2021/12/08 11:13:05;;;;;;;8.10;2.20;;;9.50;99.90;;;;;;4960065;28;20031;-76
2021/12/08 11:15:34;;;;;;;5.07;1.88;;;9.30;99.90;;;;;;4983541;28;20058;-77
2021/12/08 11:18:13;;;;;;;27.55;16.20;;;8.70;99.90;;;;;;4964850;28;20169;-77
2021/12/08 11:20:46;;;;;;;21.40;8.63;;;8.00;99.90;;;;;;4957311;28;20042;-78
2021/12/08 11:23:16;;;;;;;23.20;8.45;;;7.70;99.90;;;;;;4978251;28;20552;-78
2021/12/08 11:25:47;;;;;;;14.93;5.25;;;7.60;99.90;;;;;;4963370;28;20483;-78
2021/12/08 11:28:23;;;;;;;6.43;3.15;;;7.70;99.90;;;;;;4967250;28;20046;-78
2021/12/08 11:30:51;;;;;;;19.25;10.90;;;7.50;99.90;;;;;;4966227;28;20092;-78
2021/12/08 11:33:21;;;;;;;44.17;27.38;;;7.60;99.90;;;;;;4980252;28;20370;-78
2021/12/08 11:35:47;;;;;;;20.17;9.82;;;7.40;99.90;;;;;;4970028;28;20074;-79
2021/12/08 11:38:14;;;;;;;49.55;25.83;;;7.20;99.90;;;;;;4975082;23;20061;-77
2021/12/08 11:40:40;;;;;;;72.97;34.63;;;7.40;99.90;;;;;;4970170;28;20046;-77
2021/12/08 11:43:13;;;;;;;;;;;7.60;99.90;;;;;;4967737;28;20050;-77
2021/12/08 11:45:42;;;;;;;38.72;19.42;;;7.40;99.90;;;;;;4961762;28;19922;-77
2021/12/08 11:48:25;;;;;;;70.32;35.35;;;7.30;99.90;;;;;;4960883;28;20038;-81
2021/12/08 11:51:12;;;;;;;7.70;4.68;;;7.30;99.90;;;;;;4967930;28;20042;-78
2021/12/08 11:53:39;;;;;;;8.30;3.28;;;8.30;99.90;;;;;;4967384;28;20047;-76
2021/12/08 11:56:06;;;;;;;8.68;3.10;;;9.30;99.90;;;;;;4987572;28;20458;-76
2021/12/08 11:58:33;;;;;;;7.10;4.55;;;10.10;99.90;;;;;;4962209;28;20057;-75
2021/12/08 12:01:01;;;;;;;6.75;4.30;;;10.10;99.90;;;;;;4969341;28;20053;-75
2021/12/08 12:03:31;;;;;;;11.98;8.77;;;9.50;99.90;;;;;;4975456;23;20054;-74
2021/12/08 12:05:56;;;;;;;;;;;9.00;99.90;;;;;;4967324;28;20054;-75
2021/12/08 12:08:22;;;;;;;11.05;6.97;;;9.40;99.90;;;;;;4968372;28;19928;-77
2021/12/08 12:10:56;;;;;;;;;;;10.40;99.90;;;;;;4967997;28;20050;-78
2021/12/08 12:13:22;;;;;;;5.40;2.50;;;10.70;99.90;;;;;;4968461;28;19965;-77
2021/12/08 12:15:48;;;;;;;;;;;10.30;99.90;;;;;;4967287;28;20046;-77
2021/12/08 12:18:22;;;;;;;9.40;4.05;;;9.60;99.90;;;;;;4962676;28;19925;-75
2021/12/08 12:20:54;;;;;;;9.10;3.25;;;8.70;99.90;;;;;;4968159;28;20051;-75
2021/12/08 12:23:56;;;;;;;8.50;3.33;;;8.20;99.90;;;;;;4966077;28;20069;-76
2021/12/08 12:27:00;;;;;;;4.57;2.95;;;7.70;99.90;;;;;;4965387;28;20487;-79
2021/12/08 12:29:36;;;;;;;6.32;3.42;;;7.30;99.90;;;;;;4964193;28;20070;-78
2021/12/08 12:32:22;;;;;;;7.07;4.72;;;7.10;99.90;;;;;;4963776;28;20055;-79
2021/12/08 12:34:52;;;;;;;6.95;3.22;;;6.90;99.90;;;;;;4962320;28;20049;-80
2021/12/08 12:37:21;;;;;;;7.28;4.10;;;6.70;99.90;;;;;;4964283;28;20050;-79
2021/12/08 12:39:48;;;;;;;6.18;4.05;;;6.50;99.90;;;;;;4985833;28;20463;-73
2021/12/08 12:42:16;;;;;;;9.10;5.03;;;6.70;99.90;;;;;;4966665;28;20060;-73
2021/12/08 12:45:07;;;;;;;5.90;3.28;;;6.80;99.90;;;;;;4980088;28;20046;-76
2021/12/08 12:47:55;;;;;;;5.50;3.40;;;6.80;99.90;;;;;;4967290;28;20053;-76
2021/12/08 12:50:23;;;;;;;10.80;5.65;;;7.10;99.90;;;;;;4966992;28;20413;-76
2021/12/08 12:52:58;;;;;;;6.05;3.90;;;7.40;99.90;;;;;;4965165;28;20050;-75
2021/12/08 12:55:30;;;;;;;5.53;2.67;;;8.00;99.90;;;;;;4962645;28;20034;-75
2021/12/08 12:58:04;;;;;;;7.03;3.90;;;8.30;99.90;;;;;;4961661;28;20390;-76
2021/12/08 13:01:05;;;;;;;8.32;3.92;;;8.10;99.90;;;;;;4964829;28;20042;-76
2021/12/08 13:03:49;;;;;;;5.32;3.58;;;8.50;99.90;;;;;;4960571;28;20050;-75
2021/12/08 13:06:49;;;;;;;8.75;4.15;;;8.90;99.90;;;;;;4967125;28;20058;-75
2021/12/08 13:09:54;;;;;;;5.00;3.20;;;9.00;99.90;;;;;;4943475;28;20058;-75
2021/12/08 13:12:42;;;;;;;5.75;3.33;;;9.10;99.90;;;;;;4902777;29;20044;-76
2021/12/08 13:15:07;;;;;;;;;;;9.30;99.90;;;;;;4923813;29;20123;-76
2021/12/08 13:17:33;;;;;;;7.32;3.53;;;8.90;99.90;;;;;;4960938;28;20013;-76
2021/12/08 13:20:04;;;;;;;5.85;4.07;;;8.90;99.90;;;;;;4963926;28;20102;-75
2021/12/08 13:22:49;;;;;;;6.45;3.95;;;8.80;99.90;;;;;;4983242;28;20479;-77
2021/12/08 13:25:44;;;;;;;7.70;5.45;;;8.80;99.90;;;;;;4981506;28;20069;-76
2021/12/08 13:28:34;;;;;;;7.13;4.55;;;8.60;99.90;;;;;;4966804;28;20608;-74
2021/12/08 13:31:14;;;;;;;6.40;4.13;;;8.20;99.90;;;;;;4954920;28;20070;-77
2021/12/08 13:33:54;;;;;;;7.05;4.43;;;8.10;99.90;;;;;;4965004;28;20046;-77
2021/12/08 13:36:25;;;;;;;4.95;2.60;;;7.80;99.90;;;;;;4964140;28;20046;-76
2021/12/08 13:39:25;;;;;;;10.63;8.13;;;7.60;99.90;;;;;;4983883;28;20060;-75
2021/12/08 13:42:11;;;;;;;10.27;4.63;;;7.40;99.90;;;;;;4961727;28;20043;-80
2021/12/08 13:44:49;;;;;;;5.03;3.20;;;7.20;99.90;;;;;;4965453;28;20105;-78
2021/12/08 13:47:36;;;;;;;10.27;5.03;;;7.00;99.90;;;;;;4963102;28;20483;-79
2021/12/08 13:50:08;;;;;;;5.35;3.47;;;6.90;99.90;;;;;;4964867;28;20047;-81
2021/12/08 13:52:40;;;;;;;8.60;4.50;;;6.70;99.90;;;;;;4967269;28;20051;-83
2021/12/08 13:55:09;;;;;;;6.25;3.63;;;6.60;99.90;;;;;;4981212;28;20558;-83
2021/12/08 13:57:40;;;;;;;6.57;2.95;;;6.70;99.90;;;;;;4961449;28;20050;-84
2021/12/08 14:00:12;;;;;;;12.35;7.95;;;6.50;99.90;;;;;;4961726;28;20077;-82
2021/12/08 14:02:37;;;;;;;25.92;12.95;;;6.50;99.90;;;;;;4967508;28;20091;-78
2021/12/08 14:05:09;;;;;;;;;;;6.40;99.90;;;;;;4964507;28;20054;-77
2021/12/08 14:07:38;;;;;;;61.13;24.90;;;6.40;99.90;;;;;;4983640;28;19941;-82
2021/12/08 14:10:06;;;;;;;54.25;18.65;;;6.50;99.90;;;;;;4967319;28;20042;-76
2021/12/08 14:12:57;;;;;;;9.60;6.72;;;6.40;99.90;;;;;;4977810;28;20077;-85
2021/12/08 14:15:32;;;;;;;7.85;6.07;;;6.50;99.90;;;;;;4957590;28;20048;-80
2021/12/08 14:18:51;;;;;;;16.38;10.93;;;6.40;99.90;;;;;;4964794;28;20593;-83
2021/12/08 14:21:21;;;;;;;14.82;9.63;;;6.20;99.90;;;;;;4919974;28;20053;-80
2021/12/08 14:23:56;;;;;;;13.07;6.97;;;6.20;99.90;;;;;;4965126;28;20075;-82
2021/12/08 14:26:27;;;;;;;3.72;2.30;;;6.20;99.90;;;;;;4963097;28;20060;-78
2021/12/08 14:29:19;;;;;;;13.70;7.75;;;6.00;99.90;;;;;;4963011;28;20058;-78
2021/12/08 14:34:39;;;;;;;194.25;73.40;;;6.00;99.90;;;;;;5307279;22;20425;-77
2021/12/08 14:37:36;;;;;;;253.18;148.48;;;5.70;99.90;;;;;;4980555;28;20045;-77
2021/12/08 14:40:27;;;;;;;33.50;27.52;;;6.00;99.90;;;;;;4967157;28;20043;-80
2021/12/08 14:43:34;;;;;;;13.63;8.75;;;5.90;99.90;;;;;;4983236;28;20120;-80
2021/12/08 14:46:16;;;;;;;7.10;3.50;;;5.90;99.90;;;;;;4967001;28;20109;-78
2021/12/08 14:49:00;;;;;;;6.15;2.70;;;6.00;99.90;;;;;;4961508;28;20047;-80
2021/12/08 14:51:28;;;;;;;3.40;2.08;;;6.00;99.90;;;;;;4963054;28;20057;-80
2021/12/08 14:53:54;;;;;;;6.20;2.17;;;6.00;99.90;;;;;;4965852;28;20398;-77
2021/12/08 14:56:21;;;;;;;3.67;2.00;;;6.10;99.90;;;;;;4963239;28;20043;-75
2021/12/08 14:58:54;;;;;;;3.97;2.03;;;6.10;99.90;;;;;;4963029;28;20057;-76
2021/12/08 15:01:20;;;;;;;6.88;3.33;;;6.00;99.90;;;;;;4965931;28;20093;-76
2021/12/08 15:03:47;;;;;;;;;;;6.00;99.90;;;;;;4982436;28;20486;-83
2021/12/08 15:06:17;;;;;;;5.35;2.40;;;6.00;99.90;;;;;;4966191;28;20369;-84
2021/12/08 15:08:47;;;;;;;6.05;2.90;;;6.00;99.90;;;;;;4965591;28;20043;-77
2021/12/08 15:11:21;;;;;;;7.07;2.72;;;5.90;99.90;;;;;;4966020;28;20474;-80